Time;durP1;ratioP1;P1;durP2;ratioP2;P2;SDS_P1;SDS_P2;PMS_P1;PMS_P2;Temp;Humidity;BMP_temperature;BMP_pressure;BME280_temperature;BME280_humidity;BME280_pressure;Samples;Min_cycle;Max_cycle;Signal;HPM_P1;HPM_P2
2023/03/30 00:00:57;;;;;;;3.72;2.42;;;13.50;99.90;;;;;;5042468;28;20043;-42
2023/03/30 00:03:25;;;;;;;3.35;2.38;;;13.50;99.90;;;;;;5041984;28;20029;-43
2023/03/30 00:05:55;;;;;;;3.53;2.30;;;13.50;99.90;;;;;;5042273;28;20506;-44
2023/03/30 00:08:27;;;;;;;4.22;2.95;;;13.50;99.90;;;;;;5042291;28;20067;-42
2023/03/30 00:11:06;;;;;;;2.97;2.00;;;13.60;99.90;;;;;;5041551;28;20029;-42
2023/03/30 00:13:33;;;;;;;4.80;2.42;;;13.60;99.90;;;;;;5042837;28;20020;-41
2023/03/30 00:15:59;;;;;;;2.97;2.30;;;13.60;99.90;;;;;;5042109;28;20028;-44
2023/03/30 00:18:25;;;;;;;3.65;2.53;;;13.60;99.90;;;;;;5041192;28;20035;-43
2023/03/30 00:20:51;;;;;;;4.38;2.28;;;13.60;99.90;;;;;;5042287;28;20025;-44
2023/03/30 00:23:18;;;;;;;2.60;1.90;;;13.60;99.90;;;;;;5041511;28;20032;-44
2023/03/30 00:25:44;;;;;;;3.08;2.28;;;13.60;99.90;;;;;;5041923;28;21078;-43
2023/03/30 00:28:12;;;;;;;3.67;2.58;;;13.70;99.90;;;;;;5041273;28;20548;-43
2023/03/30 00:30:38;;;;;;;3.00;2.13;;;13.70;99.90;;;;;;5041800;28;20083;-42
2023/03/30 00:33:04;;;;;;;5.13;2.22;;;13.70;99.90;;;;;;5040832;28;20435;-43
2023/03/30 00:35:30;;;;;;;2.83;1.85;;;13.70;99.90;;;;;;5042326;28;20020;-42
2023/03/30 00:38:00;;;;;;;2.30;2.00;;;13.60;99.90;;;;;;5041219;28;20036;-43
2023/03/30 00:40:27;;;;;;;4.07;2.25;;;13.60;99.90;;;;;;5021184;28;20404;-42
2023/03/30 00:43:10;;;;;;;4.55;2.47;;;13.60;99.90;;;;;;5035950;28;20021;-42
2023/03/30 00:45:36;;;;;;;2.90;2.03;;;13.60;99.90;;;;;;5021308;28;20049;-42
2023/03/30 00:48:05;;;;;;;3.47;2.20;;;13.60;99.90;;;;;;5035142;28;20021;-42
2023/03/30 00:50:38;;;;;;;3.20;2.00;;;13.50;99.90;;;;;;5041985;28;20025;-42
2023/03/30 00:53:10;;;;;;;4.07;2.00;;;13.50;99.90;;;;;;5039831;28;20024;-42
2023/03/30 00:55:38;;;;;;;3.47;2.20;;;13.60;99.90;;;;;;5041173;28;20556;-42
2023/03/30 00:58:06;;;;;;;3.25;2.17;;;13.60;99.90;;;;;;5040919;28;20079;-42
2023/03/30 01:00:33;;;;;;;2.47;1.88;;;13.60;99.90;;;;;;5040525;28;20711;-43
2023/03/30 01:03:03;;;;;;;2.50;1.88;;;13.60;99.90;;;;;;5041133;28;20098;-43
2023/03/30 01:05:29;;;;;;;3.13;2.30;;;13.70;99.90;;;;;;5041773;28;20033;-42
2023/03/30 01:07:56;;;;;;;4.70;2.00;;;13.60;99.90;;;;;;5041047;28;20029;-43
2023/03/30 01:10:22;;;;;;;2.92;2.13;;;13.60;99.90;;;;;;5041136;28;20396;-42
2023/03/30 01:12:48;;;;;;;4.80;2.15;;;13.60;99.90;;;;;;5040931;28;20056;-42
2023/03/30 01:15:15;;;;;;;2.92;1.70;;;13.60;99.90;;;;;;5040529;28;20075;-43
2023/03/30 01:17:59;;;;;;;4.38;1.92;;;13.60;99.90;;;;;;5041409;28;20108;-43
2023/03/30 01:20:34;;;;;;;3.72;1.77;;;13.70;99.90;;;;;;5040188;28;20830;-43
2023/03/30 01:23:18;;;;;;;3.63;1.85;;;13.70;99.90;;;;;;5040937;28;20062;-43
2023/03/30 01:26:16;;;;;;;2.15;1.75;;;13.70;99.90;;;;;;5031320;28;20536;-43
2023/03/30 01:29:01;;;;;;;3.42;1.75;;;13.70;99.90;;;;;;5040781;28;20032;-42
2023/03/30 01:31:50;;;;;;;1.50;1.40;;;13.70;99.90;;;;;;5040322;28;20028;-43
2023/03/30 01:34:42;;;;;;;2.85;1.98;;;13.80;99.90;;;;;;5040005;28;20029;-42
2023/03/30 01:37:39;;;;;;;13.75;3.33;;;13.70;99.90;;;;;;5040373;28;20032;-43
2023/03/30 01:40:14;;;;;;;3.20;1.95;;;13.70;99.90;;;;;;5040163;28;20054;-43
2023/03/30 01:43:07;;;;;;;2.72;1.90;;;13.70;99.90;;;;;;5040988;28;20013;-44
2023/03/30 01:46:11;;;;;;;2.20;1.65;;;13.70;99.90;;;;;;5041021;28;20102;-44
2023/03/30 01:48:46;;;;;;;2.95;1.67;;;13.80;99.90;;;;;;5040145;28;20121;-43
2023/03/30 01:51:21;;;;;;;4.00;1.70;;;13.80;99.90;;;;;;5039858;28;20102;-44
2023/03/30 01:53:56;;;;;;;3.33;1.65;;;13.80;99.90;;;;;;5040855;28;20799;-42
2023/03/30 01:56:30;;;;;;;4.03;1.70;;;13.80;99.90;;;;;;5038150;28;20021;-43
2023/03/30 01:59:03;;;;;;;1.83;1.60;;;13.80;99.90;;;;;;5041418;28;20114;-43
2023/03/30 02:01:36;;;;;;;2.72;1.50;;;13.90;99.90;;;;;;5037425;28;20031;-43
2023/03/30 02:04:05;;;;;;;2.92;2.03;;;13.90;99.90;;;;;;5039783;28;20198;-43
2023/03/30 02:06:50;;;;;;;1.88;1.50;;;13.90;99.90;;;;;;5040551;28;20057;-42
2023/03/30 02:09:19;;;;;;;2.22;1.52;;;13.80;99.90;;;;;;5039565;28;20029;-43
2023/03/30 02:11:49;;;;;;;2.42;1.60;;;13.80;99.90;;;;;;5036693;28;20032;-43
2023/03/30 02:14:16;;;;;;;2.25;1.70;;;13.80;99.90;;;;;;5040402;28;20060;-44
2023/03/30 02:16:48;;;;;;;2.17;1.60;;;13.70;99.90;;;;;;5039460;28;20518;-43
2023/03/30 02:19:15;;;;;;;2.78;1.63;;;13.70;99.90;;;;;;5039662;28;20044;-43
2023/03/30 02:21:42;;;;;;;2.40;1.70;;;13.70;99.90;;;;;;5040047;28;20047;-42
2023/03/30 02:24:17;;;;;;;2.47;1.70;;;13.70;99.90;;;;;;5039306;28;20031;-43
2023/03/30 02:26:53;;;;;;;1.73;1.60;;;13.70;99.90;;;;;;5040034;28;20116;-43
2023/03/30 02:29:21;;;;;;;2.47;1.70;;;13.70;99.90;;;;;;5039468;28;20032;-42
2023/03/30 02:31:49;;;;;;;2.95;1.85;;;13.70;99.90;;;;;;5040062;28;20075;-43
2023/03/30 02:34:44;;;;;;;3.22;1.80;;;13.70;99.90;;;;;;5039858;28;20384;-43
2023/03/30 02:37:29;;;;;;;3.20;1.58;;;13.60;99.90;;;;;;5034222;28;20105;-42
2023/03/30 02:40:16;;;;;;;2.60;1.58;;;13.50;99.90;;;;;;5040540;28;20029;-43
2023/03/30 02:42:41;;;;;;;1.88;1.48;;;13.40;99.90;;;;;;5039866;28;20044;-42
2023/03/30 02:45:30;;;;;;;1.67;1.58;;;13.30;99.90;;;;;;5041633;28;20045;-42
2023/03/30 02:47:56;;;;;;;2.65;1.88;;;13.20;99.90;;;;;;5043732;28;20493;-42
2023/03/30 02:50:33;;;;;;;2.63;1.70;;;13.30;99.90;;;;;;5043174;28;20036;-43
2023/03/30 02:53:22;;;;;;;2.45;1.70;;;13.30;99.90;;;;;;5041772;28;20025;-45
2023/03/30 02:55:56;;;;;;;1.83;1.42;;;13.30;99.90;;;;;;5043568;28;20376;-42
2023/03/30 02:58:40;;;;;;;3.00;1.75;;;13.40;99.90;;;;;;5039790;28;20025;-43
2023/03/30 03:01:25;;;;;;;2.30;1.50;;;13.30;99.90;;;;;;5042782;28;20404;-42
2023/03/30 03:03:54;;;;;;;3.50;2.03;;;13.40;99.90;;;;;;5043807;28;20120;-42
2023/03/30 03:06:22;;;;;;;2.78;1.48;;;13.40;99.90;;;;;;5043149;28;20032;-43
2023/03/30 03:08:48;;;;;;;2.28;1.50;;;13.40;99.90;;;;;;5043994;28;20032;-42
2023/03/30 03:11:14;;;;;;;1.88;1.33;;;13.40;99.90;;;;;;5042962;28;20032;-43
2023/03/30 03:13:39;;;;;;;4.90;1.50;;;13.50;99.90;;;;;;5041058;28;20020;-42
2023/03/30 03:16:09;;;;;;;3.22;1.58;;;13.50;99.90;;;;;;5043061;28;20033;-43
2023/03/30 03:18:38;;;;;;;2.10;1.15;;;13.60;99.90;;;;;;5043568;28;20021;-44
2023/03/30 03:21:06;;;;;;;2.42;1.50;;;13.70;99.90;;;;;;5041984;28;20032;-43
2023/03/30 03:23:32;;;;;;;2.45;1.30;;;13.70;99.90;;;;;;5043609;28;20024;-42
2023/03/30 03:25:59;;;;;;;2.10;1.30;;;13.70;99.90;;;;;;5025787;28;20150;-43
2023/03/30 03:28:25;;;;;;;1.35;1.00;;;13.70;99.90;;;;;;5042553;28;20033;-44
2023/03/30 03:30:51;;;;;;;0.95;0.90;;;13.80;99.90;;;;;;5043091;28;20045;-43
2023/03/30 03:33:19;;;;;;;2.38;1.10;;;13.80;99.90;;;;;;5042032;28;20024;-43
2023/03/30 03:35:45;;;;;;;1.83;1.17;;;13.80;99.90;;;;;;5042317;28;20067;-42
2023/03/30 03:38:11;;;;;;;2.05;1.10;;;13.80;99.90;;;;;;5042255;28;20029;-43
2023/03/30 03:40:37;;;;;;;1.60;1.20;;;13.80;99.90;;;;;;5042274;28;20025;-43
2023/03/30 03:43:03;;;;;;;1.20;0.90;;;13.80;99.90;;;;;;5042345;28;20811;-44
2023/03/30 03:45:28;;;;;;;1.40;0.98;;;13.80;99.90;;;;;;5042518;28;20543;-42
2023/03/30 03:47:54;;;;;;;1.70;1.10;;;13.80;99.90;;;;;;5042111;28;20148;-44
2023/03/30 03:50:20;;;;;;;3.17;1.02;;;13.70;99.90;;;;;;5042458;28;20106;-44
2023/03/30 03:52:46;;;;;;;1.63;1.30;;;13.60;99.90;;;;;;5043624;28;20029;-43
2023/03/30 03:55:12;;;;;;;2.20;1.10;;;13.60;99.90;;;;;;5037255;28;20086;-43
2023/03/30 03:57:37;;;;;;;3.30;1.13;;;13.50;99.90;;;;;;5043331;28;20517;-44
2023/03/30 04:00:14;;;;;;;2.47;1.20;;;13.40;99.90;;;;;;5042172;28;20040;-44
2023/03/30 04:02:46;;;;;;;1.25;0.98;;;13.40;99.90;;;;;;5041919;28;20036;-43
2023/03/30 04:05:11;;;;;;;1.25;1.00;;;13.30;99.90;;;;;;5041550;28;20087;-44
2023/03/30 04:07:37;;;;;;;2.35;1.25;;;13.30;99.90;;;;;;5042976;28;20033;-43
2023/03/30 04:10:08;;;;;;;1.33;1.20;;;13.40;99.90;;;;;;5041431;28;20029;-44
2023/03/30 04:12:34;;;;;;;3.05;1.30;;;13.40;99.90;;;;;;5022501;28;20040;-43
2023/03/30 04:15:00;;;;;;;2.92;1.05;;;13.40;99.90;;;;;;5036402;28;20017;-43
2023/03/30 04:17:25;;;;;;;2.55;1.23;;;13.50;99.90;;;;;;5040928;28;20021;-43
2023/03/30 04:19:53;;;;;;;1.77;1.10;;;13.50;99.90;;;;;;5042355;28;20123;-45
2023/03/30 04:22:23;;;;;;;1.92;0.80;;;13.50;99.90;;;;;;5041416;28;20915;-42
2023/03/30 04:24:49;;;;;;;2.33;0.90;;;13.60;99.90;;;;;;5041164;28;20029;-42
2023/03/30 04:27:15;;;;;;;1.77;1.30;;;13.60;99.90;;;;;;5040384;28;20029;-42
2023/03/30 04:29:44;;;;;;;2.13;1.20;;;13.70;99.90;;;;;;5041606;28;20025;-42
2023/03/30 04:32:11;;;;;;;3.20;1.00;;;13.80;99.90;;;;;;5040679;28;20446;-41
2023/03/30 04:34:48;;;;;;;1.80;0.70;;;13.70;99.90;;;;;;5041628;28;20542;-44
2023/03/30 04:37:16;;;;;;;1.85;0.80;;;13.80;99.90;;;;;;5040791;28;20025;-41
2023/03/30 04:39:42;;;;;;;2.05;0.80;;;13.80;99.90;;;;;;5041773;28;20112;-43
2023/03/30 04:42:12;;;;;;;2.15;0.65;;;13.80;99.90;;;;;;5041406;28;20033;-43
2023/03/30 04:44:41;;;;;;;1.40;0.75;;;13.80;99.90;;;;;;5044701;28;20040;-42
2023/03/30 04:47:07;;;;;;;1.45;0.73;;;13.80;99.90;;;;;;5045073;28;20135;-43
2023/03/30 04:49:33;;;;;;;1.88;0.77;;;13.80;99.90;;;;;;5041633;28;20154;-42
2023/03/30 04:51:58;;;;;;;1.50;0.80;;;13.80;99.90;;;;;;5041033;28;20032;-42
2023/03/30 04:54:24;;;;;;;0.95;0.80;;;13.80;99.90;;;;;;5041224;28;20029;-43
2023/03/30 04:56:50;;;;;;;1.65;0.95;;;13.80;99.90;;;;;;5041170;28;20025;-42
2023/03/30 04:59:15;;;;;;;2.00;1.25;;;13.80;99.90;;;;;;5040394;28;20059;-43
2023/03/30 05:01:41;;;;;;;2.08;1.10;;;13.80;99.90;;;;;;5041270;28;20059;-42
2023/03/30 05:04:06;;;;;;;3.20;1.40;;;13.80;99.90;;;;;;5040572;28;20074;-42
2023/03/30 05:06:32;;;;;;;1.17;1.00;;;13.70;99.90;;;;;;5039758;28;20125;-42
2023/03/30 05:08:58;;;;;;;4.03;1.63;;;13.70;99.90;;;;;;5041364;28;20021;-44
2023/03/30 05:11:23;;;;;;;3.55;1.98;;;13.60;99.90;;;;;;5041040;28;20056;-43
2023/03/30 05:13:50;;;;;;;2.63;1.50;;;13.50;99.90;;;;;;5041164;28;20028;-42
2023/03/30 05:16:16;;;;;;;2.95;1.75;;;13.30;99.90;;;;;;5040515;28;20357;-42
2023/03/30 05:18:45;;;;;;;5.32;1.88;;;13.30;99.90;;;;;;5041936;28;20117;-42
2023/03/30 05:21:10;;;;;;;3.28;1.60;;;13.20;99.90;;;;;;5039960;28;20485;-43
2023/03/30 05:23:38;;;;;;;4.07;1.75;;;13.20;99.90;;;;;;5041703;28;20032;-43
2023/03/30 05:26:05;;;;;;;3.47;1.50;;;13.10;99.90;;;;;;5056754;28;20079;-42
2023/03/30 05:28:31;;;;;;;4.95;1.75;;;13.10;99.90;;;;;;5038381;28;20032;-43
2023/03/30 05:30:57;;;;;;;4.07;1.65;;;13.20;99.90;;;;;;5040382;28;20025;-42
2023/03/30 05:33:23;;;;;;;2.75;1.70;;;13.10;99.90;;;;;;5039388;28;20104;-42
2023/03/30 05:35:49;;;;;;;4.93;2.15;;;13.00;99.90;;;;;;5039388;28;20354;-43
2023/03/30 05:38:18;;;;;;;3.15;1.75;;;13.00;99.90;;;;;;5038374;28;20060;-42
2023/03/30 05:40:46;;;;;;;2.83;1.52;;;13.00;99.90;;;;;;5039386;28;20106;-42
2023/03/30 05:43:12;;;;;;;2.33;1.65;;;12.90;99.90;;;;;;5039106;28;20035;-43
2023/03/30 05:45:38;;;;;;;2.28;1.70;;;12.90;99.90;;;;;;5020982;28;20033;-43
2023/03/30 05:48:06;;;;;;;4.25;1.70;;;12.90;99.90;;;;;;5032173;28;20140;-43
2023/03/30 05:50:31;;;;;;;3.53;1.80;;;12.90;99.90;;;;;;5040419;28;20031;-42
2023/03/30 05:52:57;;;;;;;3.35;1.83;;;12.80;99.90;;;;;;5039211;28;20033;-42
2023/03/30 05:55:22;;;;;;;4.93;2.30;;;12.90;99.90;;;;;;5038451;28;20021;-43
2023/03/30 05:57:48;;;;;;;4.47;2.13;;;12.90;99.90;;;;;;5039286;28;20116;-41
2023/03/30 06:00:20;;;;;;;3.85;2.08;;;12.90;99.90;;;;;;5038688;28;20025;-42
2023/03/30 06:02:46;;;;;;;4.70;2.83;;;12.90;99.90;;;;;;5039021;28;20091;-42
2023/03/30 06:05:12;;;;;;;5.63;2.63;;;12.80;99.90;;;;;;5039101;28;20056;-43
2023/03/30 06:07:41;;;;;;;5.65;2.35;;;12.90;99.90;;;;;;5039270;28;20528;-42
2023/03/30 06:10:07;;;;;;;3.75;2.25;;;12.90;99.90;;;;;;5038300;28;20029;-43
2023/03/30 06:12:35;;;;;;;4.97;2.40;;;12.90;99.90;;;;;;5039221;28;20028;-42
2023/03/30 06:15:01;;;;;;;5.40;2.25;;;12.90;99.90;;;;;;5038213;28;20037;-43
2023/03/30 06:17:28;;;;;;;5.50;2.58;;;13.00;99.90;;;;;;5024317;28;20036;-43
2023/03/30 06:19:54;;;;;;;6.18;2.30;;;13.00;99.90;;;;;;5031208;28;20372;-43
2023/03/30 06:22:20;;;;;;;4.40;2.15;;;13.00;99.90;;;;;;5029496;28;20033;-43
2023/03/30 06:24:46;;;;;;;4.10;2.10;;;13.10;99.90;;;;;;5030827;28;20029;-43
2023/03/30 06:27:12;;;;;;;5.45;2.05;;;13.10;99.90;;;;;;5029411;28;20041;-43
2023/03/30 06:29:37;;;;;;;5.75;2.22;;;13.20;99.90;;;;;;5030566;28;20781;-43
2023/03/30 06:32:03;;;;;;;6.10;1.98;;;13.20;99.90;;;;;;5029709;28;20025;-43
2023/03/30 06:34:32;;;;;;;5.22;1.88;;;13.20;99.90;;;;;;5031004;28;20148;-43
2023/03/30 06:36:57;;;;;;;6.15;2.25;;;13.20;99.90;;;;;;5030635;28;20080;-44
2023/03/30 06:39:24;;;;;;;3.58;1.88;;;13.20;99.90;;;;;;5030285;28;20815;-43
2023/03/30 06:41:49;;;;;;;7.43;1.88;;;13.30;99.90;;;;;;5030836;28;20032;-44
2023/03/30 06:44:15;;;;;;;5.82;1.85;;;13.30;99.90;;;;;;5029531;28;20526;-44
2023/03/30 06:46:41;;;;;;;6.53;2.60;;;13.30;99.90;;;;;;5029369;28;20041;-43
2023/03/30 06:49:07;;;;;;;5.47;1.92;;;13.40;99.90;;;;;;5030057;28;20017;-43
2023/03/30 06:51:34;;;;;;;5.15;2.08;;;13.40;99.90;;;;;;5028936;28;20116;-43
2023/03/30 06:54:03;;;;;;;4.28;2.00;;;13.30;99.90;;;;;;5030415;28;20028;-44
2023/03/30 06:56:31;;;;;;;5.25;2.17;;;13.30;99.90;;;;;;5031123;28;20037;-43
2023/03/30 06:58:56;;;;;;;6.38;2.55;;;13.20;99.90;;;;;;5030294;28;20029;-43
2023/03/30 07:01:22;;;;;;;6.25;2.33;;;13.20;99.90;;;;;;5029913;28;20027;-43
2023/03/30 07:03:50;;;;;;;5.35;2.50;;;13.20;99.90;;;;;;5030271;28;20028;-43
2023/03/30 07:06:16;;;;;;;5.75;2.10;;;13.20;99.90;;;;;;5028628;28;20037;-43
2023/03/30 07:08:41;;;;;;;5.13;1.90;;;13.20;99.90;;;;;;5030640;28;20025;-43
2023/03/30 07:11:07;;;;;;;8.48;2.88;;;13.20;99.90;;;;;;5028376;28;21251;-43
2023/03/30 07:13:33;;;;;;;8.30;1.90;;;13.20;99.90;;;;;;5030215;28;20508;-43
2023/03/30 07:15:58;;;;;;;7.28;2.28;;;13.20;99.90;;;;;;5029362;28;20037;-44
2023/03/30 07:18:24;;;;;;;4.75;1.92;;;13.20;99.90;;;;;;5029999;28;21315;-42
2023/03/30 07:20:52;;;;;;;4.13;1.65;;;13.30;99.90;;;;;;5029793;28;20436;-43
2023/03/30 07:23:18;;;;;;;4.22;1.75;;;13.30;99.90;;;;;;5029617;28;20044;-43
2023/03/30 07:25:45;;;;;;;4.95;1.63;;;13.40;99.90;;;;;;5029738;28;20033;-43
2023/03/30 07:28:13;;;;;;;7.35;2.00;;;13.30;99.90;;;;;;5030281;28;20836;-43
2023/03/30 07:30:38;;;;;;;5.10;1.90;;;13.40;99.90;;;;;;5028621;28;20091;-43
2023/03/30 07:33:04;;;;;;;7.30;1.90;;;13.50;99.90;;;;;;5028977;28;20472;-43
2023/03/30 07:35:30;;;;;;;5.85;2.17;;;13.60;99.90;;;;;;5029481;28;20617;-43
2023/03/30 07:37:56;;;;;;;7.00;2.03;;;13.80;99.90;;;;;;5030523;28;20111;-42
2023/03/30 07:40:21;;;;;;;4.32;2.00;;;13.90;99.90;;;;;;5027346;28;20021;-42
2023/03/30 07:42:47;;;;;;;6.22;2.03;;;14.00;99.90;;;;;;5029242;28;20033;-42
2023/03/30 07:45:13;;;;;;;5.63;1.90;;;14.00;99.90;;;;;;5029308;28;20017;-43
2023/03/30 07:47:39;;;;;;;7.95;2.47;;;14.00;99.90;;;;;;5027927;28;20048;-44
2023/03/30 07:50:05;;;;;;;7.32;2.25;;;14.10;99.90;;;;;;5028376;28;20036;-44
2023/03/30 07:52:31;;;;;;;9.43;2.85;;;14.00;99.90;;;;;;5029845;28;20120;-43
2023/03/30 07:54:57;;;;;;;7.50;2.08;;;14.00;99.90;;;;;;5028844;28;20021;-44
2023/03/30 07:57:24;;;;;;;8.90;2.22;;;14.10;99.90;;;;;;5028908;28;20151;-44
2023/03/30 07:59:52;;;;;;;9.18;3.10;;;14.00;99.90;;;;;;5028727;28;20102;-43
2023/03/30 08:02:18;;;;;;;7.43;2.00;;;14.10;99.90;;;;;;5027273;28;20035;-43
2023/03/30 08:04:44;;;;;;;9.27;2.20;;;14.10;99.90;;;;;;5028644;28;20047;-43
2023/03/30 08:07:10;;;;;;;10.23;2.20;;;14.10;99.90;;;;;;5027192;28;20163;-44
2023/03/30 08:09:36;;;;;;;11.50;2.55;;;14.10;99.90;;;;;;5028056;28;20121;-42
2023/03/30 08:12:05;;;;;;;7.15;2.13;;;14.10;99.90;;;;;;5028414;28;20033;-42
2023/03/30 08:14:31;;;;;;;8.43;2.25;;;14.10;99.90;;;;;;5040909;28;20365;-44
2023/03/30 08:16:57;;;;;;;9.63;2.38;;;14.10;99.90;;;;;;5042095;28;20499;-42
2023/03/30 08:19:23;;;;;;;11.45;2.40;;;14.10;99.90;;;;;;5041828;28;20387;-43
2023/03/30 08:21:49;;;;;;;8.95;2.40;;;14.20;99.90;;;;;;5042427;28;20024;-42
2023/03/30 08:24:15;;;;;;;8.30;2.17;;;14.20;99.90;;;;;;5041285;28;20025;-43
2023/03/30 08:26:42;;;;;;;11.18;2.60;;;14.30;99.90;;;;;;5040707;28;20033;-44
2023/03/30 08:29:08;;;;;;;9.35;2.40;;;14.30;99.90;;;;;;5041010;28;20021;-43
2023/03/30 08:31:37;;;;;;;11.57;2.58;;;14.40;99.90;;;;;;5042274;28;20040;-42
2023/03/30 08:34:03;;;;;;;10.35;2.35;;;14.40;99.90;;;;;;5041909;28;20117;-43
2023/03/30 08:36:29;;;;;;;12.60;2.92;;;14.40;99.90;;;;;;5042060;28;20104;-43
2023/03/30 08:38:55;;;;;;;9.32;2.83;;;14.50;99.90;;;;;;5042064;28;20039;-42
2023/03/30 08:41:32;;;;;;;13.65;2.70;;;14.60;99.90;;;;;;5041424;28;20743;-42
2023/03/30 08:44:00;;;;;;;7.05;2.17;;;14.70;99.90;;;;;;5040910;28;20029;-42
2023/03/30 08:46:29;;;;;;;14.27;3.00;;;14.70;99.90;;;;;;5041359;28;20864;-43
2023/03/30 08:48:59;;;;;;;12.60;2.50;;;14.60;99.90;;;;;;5041711;28;20032;-42
2023/03/30 08:51:31;;;;;;;12.82;3.30;;;14.60;99.90;;;;;;5040950;28;20036;-42
2023/03/30 08:54:00;;;;;;;12.88;2.90;;;14.60;99.90;;;;;;5041361;28;20380;-44
2023/03/30 08:56:36;;;;;;;8.07;2.40;;;14.70;99.90;;;;;;5041330;28;20090;-43
2023/03/30 08:59:01;;;;;;;8.85;2.35;;;14.70;99.90;;;;;;5040565;28;20036;-42
2023/03/30 09:01:33;;;;;;;9.15;2.78;;;14.70;99.90;;;;;;5041777;28;20025;-43
2023/03/30 09:04:27;;;;;;;10.80;3.30;;;14.70;99.90;;;;;;5040996;28;20104;-43
2023/03/30 09:07:01;;;;;;;10.07;2.90;;;14.50;99.90;;;;;;5041456;28;20778;-43
2023/03/30 09:09:30;;;;;;;11.88;2.50;;;14.40;99.90;;;;;;5042010;28;20071;-44
2023/03/30 09:12:07;;;;;;;8.90;2.30;;;14.40;99.90;;;;;;5040571;28;20064;-43
2023/03/30 09:14:48;;;;;;;10.90;3.00;;;14.30;99.90;;;;;;5040505;28;20021;-43
2023/03/30 09:17:22;;;;;;;13.98;3.20;;;14.30;99.90;;;;;;5040674;28;20028;-42
2023/03/30 09:19:59;;;;;;;12.75;4.18;;;14.20;99.90;;;;;;5040048;28;20017;-42
2023/03/30 09:22:31;;;;;;;12.32;3.67;;;14.00;99.90;;;;;;5040484;28;20028;-43
2023/03/30 09:24:58;;;;;;;10.57;3.40;;;13.70;99.90;;;;;;5040526;28;20037;-43
2023/03/30 09:27:54;;;;;;;10.55;3.45;;;13.40;99.90;;;;;;5039586;28;20079;-44
2023/03/30 09:30:29;;;;;;;10.02;3.10;;;13.30;99.90;;;;;;5040099;28;20116;-42
2023/03/30 09:33:02;;;;;;;13.45;3.47;;;13.20;99.90;;;;;;5040370;28;20119;-43
2023/03/30 09:35:43;;;;;;;13.55;3.95;;;13.20;99.90;;;;;;5040746;28;20542;-43
2023/03/30 09:38:11;;;;;;;12.10;3.42;;;13.30;99.90;;;;;;5040084;28;20036;-44
2023/03/30 09:41:00;;;;;;;12.32;3.92;;;13.40;99.90;;;;;;5040047;28;20194;-44
2023/03/30 09:43:34;;;;;;;12.57;3.47;;;13.50;99.90;;;;;;5040759;28;20690;-43
2023/03/30 09:46:04;;;;;;;9.68;3.20;;;13.60;99.90;;;;;;5040546;28;20163;-42
2023/03/30 09:48:40;;;;;;;10.05;3.20;;;13.70;99.90;;;;;;5040582;28;20031;-43
2023/03/30 09:51:18;;;;;;;14.35;3.58;;;13.80;99.90;;;;;;5040120;28;20472;-42
2023/03/30 09:53:45;;;;;;;12.95;3.38;;;13.80;99.90;;;;;;5039118;28;20039;-42
2023/03/30 09:56:35;;;;;;;12.75;3.45;;;13.90;99.90;;;;;;5039590;28;20025;-42
2023/03/30 09:59:32;;;;;;;11.52;3.22;;;14.00;99.90;;;;;;5040958;28;20033;-43
2023/03/30 10:02:16;;;;;;;16.70;3.63;;;14.10;99.90;;;;;;5040378;28;20032;-42
2023/03/30 10:04:51;;;;;;;13.02;3.33;;;14.20;99.90;;;;;;5041149;28;20117;-43
2023/03/30 10:07:30;;;;;;;16.33;4.18;;;14.20;99.90;;;;;;5040199;28;20049;-42
2023/03/30 10:09:58;;;;;;;13.40;3.30;;;14.30;99.90;;;;;;5040323;28;20484;-43
2023/03/30 10:12:24;;;;;;;16.65;3.78;;;14.30;99.90;;;;;;5040431;28;20028;-43
2023/03/30 10:15:01;;;;;;;17.23;4.30;;;14.50;99.90;;;;;;5040182;28;20021;-43
2023/03/30 10:17:28;;;;;;;17.17;3.80;;;14.60;99.90;;;;;;5040197;28;20048;-43
2023/03/30 10:20:14;;;;;;;12.70;3.17;;;14.80;99.90;;;;;;5040294;28;20057;-43
2023/03/30 10:23:14;;;;;;;15.43;3.83;;;14.80;99.90;;;;;;5039099;28;20384;-43
2023/03/30 10:25:41;;;;;;;13.68;3.20;;;15.00;99.90;;;;;;5040316;28;20199;-43
2023/03/30 10:28:20;;;;;;;16.13;4.28;;;15.00;99.90;;;;;;5039900;28;20040;-43
2023/03/30 10:31:13;;;;;;;15.00;3.90;;;15.00;99.90;;;;;;5039729;28;20357;-42
2023/03/30 10:33:41;;;;;;;;;;;14.90;99.90;;;;;;5040056;28;20029;-43
2023/03/30 10:36:07;;;;;;;19.52;3.85;;;14.90;99.90;;;;;;5039130;28;19913;-42
2023/03/30 10:38:33;;;;;;;13.98;3.10;;;14.90;99.90;;;;;;5039555;28;20392;-42
2023/03/30 10:41:08;;;;;;;13.25;3.38;;;14.90;99.90;;;;;;5040240;28;20029;-43
2023/03/30 10:43:34;;;;;;;9.70;3.28;;;15.00;99.90;;;;;;5039658;28;20025;-43
2023/03/30 10:46:17;;;;;;;14.40;3.72;;;15.10;99.90;;;;;;5039880;28;20049;-43
2023/03/30 10:48:54;;;;;;;10.32;3.25;;;15.20;99.90;;;;;;5039547;28;20388;-43
2023/03/30 10:51:47;;;;;;;10.70;3.00;;;15.30;99.90;;;;;;5038904;28;20025;-42
2023/03/30 10:54:22;;;;;;;22.02;3.80;;;15.50;99.90;;;;;;5039470;28;20381;-41
2023/03/30 10:56:53;;;;;;;10.23;3.42;;;15.60;99.90;;;;;;5039688;28;20138;-42
2023/03/30 10:59:39;;;;;;;14.98;4.18;;;15.60;99.90;;;;;;5038714;28;20061;-43
2023/03/30 11:02:22;;;;;;;15.50;3.83;;;15.60;99.90;;;;;;5039028;28;20021;-44
2023/03/30 11:04:55;;;;;;;11.13;3.38;;;15.50;99.90;;;;;;5037518;28;20039;-44
2023/03/30 11:07:50;;;;;;;15.93;4.20;;;15.40;99.90;;;;;;5042905;28;20122;-43
2023/03/30 11:10:53;;;;;;;12.63;3.65;;;15.40;99.90;;;;;;5032850;28;20112;-43
2023/03/30 11:13:26;;;;;;;11.77;3.00;;;15.40;99.90;;;;;;5019963;28;20032;-42
2023/03/30 11:16:36;;;;;;;11.73;3.35;;;15.60;99.90;;;;;;5040094;28;20588;-43
2023/03/30 11:19:12;;;;;;;11.80;3.67;;;15.70;99.90;;;;;;5029650;28;20513;-43
2023/03/30 11:21:55;;;;;;;15.35;3.90;;;15.70;99.90;;;;;;5043506;28;20091;-42
2023/03/30 11:24:23;;;;;;;18.08;4.18;;;15.70;99.90;;;;;;5042283;28;20616;-41
2023/03/30 11:27:12;;;;;;;17.92;4.50;;;15.70;99.90;;;;;;5042813;28;20048;-43
2023/03/30 11:29:45;;;;;;;19.13;4.72;;;15.70;99.90;;;;;;5043327;28;20594;-43
2023/03/30 11:32:36;;;;;;;15.63;3.53;;;15.80;99.90;;;;;;5041646;28;20029;-42
2023/03/30 11:35:27;;;;;;;14.25;3.20;;;15.90;99.90;;;;;;5041456;28;20032;-43
2023/03/30 11:38:05;;;;;;;18.85;4.30;;;16.00;99.90;;;;;;5043514;28;20559;-43
2023/03/30 11:40:45;;;;;;;13.88;3.40;;;16.10;99.90;;;;;;5041975;28;20447;-43
2023/03/30 11:43:12;;;;;;;16.42;3.50;;;16.00;99.90;;;;;;5042606;28;20076;-43
2023/03/30 11:46:02;;;;;;;13.70;3.38;;;15.90;99.90;;;;;;5042660;28;20037;-43
2023/03/30 11:48:40;;;;;;;12.27;3.17;;;15.90;99.90;;;;;;5043672;28;20029;-43
2023/03/30 11:51:18;;;;;;;13.38;3.53;;;15.90;99.90;;;;;;5041705;28;20682;-43
2023/03/30 11:54:17;;;;;;;15.73;3.60;;;15.90;99.90;;;;;;5041894;28;20052;-43
2023/03/30 11:57:06;;;;;;;14.10;3.35;;;15.80;99.90;;;;;;5042583;28;20116;-43
2023/03/30 11:59:50;;;;;;;11.25;2.92;;;15.80;99.90;;;;;;5042302;28;20021;-43
2023/03/30 12:02:31;;;;;;;12.27;2.70;;;15.90;99.90;;;;;;5042455;28;20037;-42
2023/03/30 12:05:15;;;;;;;8.27;2.47;;;16.00;99.90;;;;;;5042806;28;20037;-43
2023/03/30 12:07:55;;;;;;;11.23;2.90;;;16.10;99.90;;;;;;5041904;28;20639;-42
2023/03/30 12:10:41;;;;;;;10.38;2.55;;;16.30;99.90;;;;;;5041885;28;20153;-42
2023/03/30 12:13:14;;;;;;;10.82;2.85;;;16.30;99.90;;;;;;5042524;28;20029;-43
2023/03/30 12:15:55;;;;;;;15.88;2.72;;;16.40;99.90;;;;;;5041116;28;20028;-43
2023/03/30 12:18:42;;;;;;;11.10;2.92;;;16.50;99.90;;;;;;5041869;28;20363;-43
2023/03/30 12:21:32;;;;;;;15.50;3.47;;;16.50;99.90;;;;;;5041039;28;20071;-43
2023/03/30 12:24:25;;;;;;;12.32;2.97;;;16.50;99.90;;;;;;5042110;28;20029;-44
2023/03/30 12:26:51;;;;;;;13.63;3.95;;;16.40;99.90;;;;;;5042496;28;20040;-43
2023/03/30 12:29:18;;;;;;;9.20;2.50;;;16.40;99.90;;;;;;5040946;28;20032;-43
2023/03/30 12:31:57;;;;;;;14.43;3.25;;;16.40;99.90;;;;;;5041900;28;20032;-43
2023/03/30 12:34:26;;;;;;;12.23;3.63;;;16.40;99.90;;;;;;5022105;28;20484;-43
2023/03/30 12:36:56;;;;;;;9.20;2.70;;;16.30;99.90;;;;;;5036291;28;20094;-44
2023/03/30 12:39:30;;;;;;;12.23;3.17;;;16.30;99.90;;;;;;5041515;28;20696;-44
2023/03/30 12:42:25;;;;;;;10.95;2.70;;;16.30;99.90;;;;;;5041295;28;20029;-43
2023/03/30 12:45:06;;;;;;;10.00;2.83;;;16.30;99.90;;;;;;5022137;28;20040;-42
2023/03/30 12:47:42;;;;;;;11.98;2.60;;;16.40;99.90;;;;;;5038553;28;20059;-42
2023/03/30 12:50:16;;;;;;;12.55;2.92;;;16.40;99.90;;;;;;5040483;28;20902;-42
2023/03/30 12:52:42;;;;;;;11.52;2.83;;;16.40;99.90;;;;;;5041286;28;20033;-42
2023/03/30 12:55:18;;;;;;;16.45;3.45;;;16.40;99.90;;;;;;5041132;28;20102;-43
2023/03/30 12:57:55;;;;;;;14.10;3.20;;;16.40;99.90;;;;;;5040825;28;20036;-43
2023/03/30 13:00:46;;;;;;;14.10;3.33;;;16.40;99.90;;;;;;5021259;28;20036;-43
2023/03/30 13:03:18;;;;;;;13.30;2.95;;;16.30;99.90;;;;;;5038988;28;20037;-43
2023/03/30 13:05:44;;;;;;;13.65;3.85;;;16.30;99.90;;;;;;5041343;28;20041;-43
2023/03/30 13:08:30;;;;;;;14.55;3.03;;;16.40;99.90;;;;;;5040725;28;20153;-43